sensor_id;sensor_type;location;lat;lon;timestamp;temperature;humidity
18091;DHT22;9172;49.948;9.208;2023-07-13T00:01:51;19.80;99.90
18091;DHT22;9172;49.948;9.208;2023-07-13T00:04:21;19.90;99.90
18091;DHT22;9172;49.948;9.208;2023-07-13T00:06:53;19.90;99.90
18091;DHT22;9172;49.948;9.208;2023-07-13T00:11:58;19.90;99.90
18091;DHT22;9172;49.948;9.208;2023-07-13T00:14:29;19.80;99.90
18091;DHT22;9172;49.948;9.208;2023-07-13T00:16:58;19.80;99.90
18091;DHT22;9172;49.948;9.208;2023-07-13T00:19:28;19.80;99.90
18091;DHT22;9172;49.948;9.208;2023-07-13T00:21:57;19.70;99.90
18091;DHT22;9172;49.948;9.208;2023-07-13T00:24:25;19.70;99.90
18091;DHT22;9172;49.948;9.208;2023-07-13T00:26:55;19.60;99.90
18091;DHT22;9172;49.948;9.208;2023-07-13T00:29:25;19.60;99.90
18091;DHT22;9172;49.948;9.208;2023-07-13T00:31:55;19.50;99.90
18091;DHT22;9172;49.948;9.208;2023-07-13T00:34:25;19.50;99.90
18091;DHT22;9172;49.948;9.208;2023-07-13T00:36:54;19.50;99.90
18091;DHT22;9172;49.948;9.208;2023-07-13T00:39:23;19.50;99.90
18091;DHT22;9172;49.948;9.208;2023-07-13T00:41:53;19.50;99.90
18091;DHT22;9172;49.948;9.208;2023-07-13T00:44:23;19.50;99.90
18091;DHT22;9172;49.948;9.208;2023-07-13T00:46:53;19.30;99.90
18091;DHT22;9172;49.948;9.208;2023-07-13T00:49:26;19.30;99.90
18091;DHT22;9172;49.948;9.208;2023-07-13T00:51:58;19.30;99.90
18091;DHT22;9172;49.948;9.208;2023-07-13T00:54:30;19.30;99.90
18091;DHT22;9172;49.948;9.208;2023-07-13T00:57:03;19.30;99.90
18091;DHT22;9172;49.948;9.208;2023-07-13T00:59:32;19.30;99.90
18091;DHT22;9172;49.948;9.208;2023-07-13T01:02:04;19.30;99.90
18091;DHT22;9172;49.948;9.208;2023-07-13T01:04:32;19.30;99.90
18091;DHT22;9172;49.948;9.208;2023-07-13T01:07:01;19.20;99.90
18091;DHT22;9172;49.948;9.208;2023-07-13T01:09:30;19.10;99.90
18091;DHT22;9172;49.948;9.208;2023-07-13T01:11:58;19.10;99.90
18091;DHT22;9172;49.948;9.208;2023-07-13T01:14:27;19.10;99.90
18091;DHT22;9172;49.948;9.208;2023-07-13T01:16:56;19.10;99.90
18091;DHT22;9172;49.948;9.208;2023-07-13T01:19:32;19.10;99.90
18091;DHT22;9172;49.948;9.208;2023-07-13T01:22:04;19.10;99.90
18091;DHT22;9172;49.948;9.208;2023-07-13T01:24:36;19.00;99.90
18091;DHT22;9172;49.948;9.208;2023-07-13T01:27:07;19.00;99.90
18091;DHT22;9172;49.948;9.208;2023-07-13T01:29:39;18.90;99.90
18091;DHT22;9172;49.948;9.208;2023-07-13T01:32:09;18.90;99.90
18091;DHT22;9172;49.948;9.208;2023-07-13T01:34:38;18.90;99.90
18091;DHT22;9172;49.948;9.208;2023-07-13T01:37:10;18.80;99.90
18091;DHT22;9172;49.948;9.208;2023-07-13T01:39:39;18.80;99.90
18091;DHT22;9172;49.948;9.208;2023-07-13T01:42:09;18.80;99.90
18091;DHT22;9172;49.948;9.208;2023-07-13T01:44:38;18.70;99.90
18091;DHT22;9172;49.948;9.208;2023-07-13T01:47:07;18.60;99.90
18091;DHT22;9172;49.948;9.208;2023-07-13T01:49:36;18.60;99.90
18091;DHT22;9172;49.948;9.208;2023-07-13T01:52:07;18.60;99.90
18091;DHT22;9172;49.948;9.208;2023-07-13T01:54:35;18.70;99.90
18091;DHT22;9172;49.948;9.208;2023-07-13T01:57:06;18.60;99.90
18091;DHT22;9172;49.948;9.208;2023-07-13T01:59:34;18.60;99.90
18091;DHT22;9172;49.948;9.208;2023-07-13T02:02:04;18.60;99.90
18091;DHT22;9172;49.948;9.208;2023-07-13T02:04:32;18.60;99.90
18091;DHT22;9172;49.948;9.208;2023-07-13T02:07:01;18.50;99.90
18091;DHT22;9172;49.948;9.208;2023-07-13T02:09:31;18.50;99.90
18091;DHT22;9172;49.948;9.208;2023-07-13T02:12:01;18.40;99.90
18091;DHT22;9172;49.948;9.208;2023-07-13T02:14:30;18.10;99.90
18091;DHT22;9172;49.948;9.208;2023-07-13T02:16:59;17.90;99.90
18091;DHT22;9172;49.948;9.208;2023-07-13T02:19:28;17.90;99.90
18091;DHT22;9172;49.948;9.208;2023-07-13T02:21:57;18.00;99.90
18091;DHT22;9172;49.948;9.208;2023-07-13T02:24:27;18.10;99.90
18091;DHT22;9172;49.948;9.208;2023-07-13T02:26:56;18.10;99.90
18091;DHT22;9172;49.948;9.208;2023-07-13T02:29:25;18.10;99.90
18091;DHT22;9172;49.948;9.208;2023-07-13T02:31:55;18.10;99.90
18091;DHT22;9172;49.948;9.208;2023-07-13T02:34:25;18.10;99.90
18091;DHT22;9172;49.948;9.208;2023-07-13T02:36:54;18.10;99.90
18091;DHT22;9172;49.948;9.208;2023-07-13T02:39:23;18.00;99.90
18091;DHT22;9172;49.948;9.208;2023-07-13T02:41:52;17.80;99.90
18091;DHT22;9172;49.948;9.208;2023-07-13T02:44:20;17.70;99.90
18091;DHT22;9172;49.948;9.208;2023-07-13T02:46:50;17.80;99.90
18091;DHT22;9172;49.948;9.208;2023-07-13T02:49:19;17.90;99.90
18091;DHT22;9172;49.948;9.208;2023-07-13T02:51:50;18.00;99.90
18091;DHT22;9172;49.948;9.208;2023-07-13T02:54:19;18.00;99.90
18091;DHT22;9172;49.948;9.208;2023-07-13T02:56:48;17.70;99.90
18091;DHT22;9172;49.948;9.208;2023-07-13T02:59:18;17.60;99.90
18091;DHT22;9172;49.948;9.208;2023-07-13T03:01:46;17.40;99.90
18091;DHT22;9172;49.948;9.208;2023-07-13T03:04:15;17.10;99.90
18091;DHT22;9172;49.948;9.208;2023-07-13T03:06:45;17.10;99.90
18091;DHT22;9172;49.948;9.208;2023-07-13T03:09:14;17.10;99.90
18091;DHT22;9172;49.948;9.208;2023-07-13T03:11:43;17.20;99.90
18091;DHT22;9172;49.948;9.208;2023-07-13T03:14:14;17.30;99.90
18091;DHT22;9172;49.948;9.208;2023-07-13T03:16:42;17.40;99.90
18091;DHT22;9172;49.948;9.208;2023-07-13T03:19:12;17.40;99.90
18091;DHT22;9172;49.948;9.208;2023-07-13T03:21:40;17.50;99.90
18091;DHT22;9172;49.948;9.208;2023-07-13T03:24:09;17.60;99.90
18091;DHT22;9172;49.948;9.208;2023-07-13T03:26:37;17.50;99.90
18091;DHT22;9172;49.948;9.208;2023-07-13T03:29:06;17.20;99.90
18091;DHT22;9172;49.948;9.208;2023-07-13T03:31:36;16.80;99.90
18091;DHT22;9172;49.948;9.208;2023-07-13T03:34:05;16.70;99.90
18091;DHT22;9172;49.948;9.208;2023-07-13T03:36:36;16.70;99.90
18091;DHT22;9172;49.948;9.208;2023-07-13T03:39:04;16.90;99.90
18091;DHT22;9172;49.948;9.208;2023-07-13T03:41:35;16.90;99.90
18091;DHT22;9172;49.948;9.208;2023-07-13T03:44:05;17.00;99.90
18091;DHT22;9172;49.948;9.208;2023-07-13T03:46:34;17.00;99.90
18091;DHT22;9172;49.948;9.208;2023-07-13T03:49:03;17.10;99.90
18091;DHT22;9172;49.948;9.208;2023-07-13T03:51:33;17.10;99.90
18091;DHT22;9172;49.948;9.208;2023-07-13T03:54:03;17.10;99.90
18091;DHT22;9172;49.948;9.208;2023-07-13T03:56:32;17.10;99.90
18091;DHT22;9172;49.948;9.208;2023-07-13T03:59:02;17.20;99.90
18091;DHT22;9172;49.948;9.208;2023-07-13T04:01:32;17.20;99.90
18091;DHT22;9172;49.948;9.208;2023-07-13T04:04:01;17.20;99.90
18091;DHT22;9172;49.948;9.208;2023-07-13T04:06:31;17.20;99.90
18091;DHT22;9172;49.948;9.208;2023-07-13T04:09:01;17.20;99.90
18091;DHT22;9172;49.948;9.208;2023-07-13T04:11:35;17.20;99.90
18091;DHT22;9172;49.948;9.208;2023-07-13T04:14:05;16.90;99.90
18091;DHT22;9172;49.948;9.208;2023-07-13T04:16:34;16.90;99.90
18091;DHT22;9172;49.948;9.208;2023-07-13T04:19:02;16.90;99.90
18091;DHT22;9172;49.948;9.208;2023-07-13T04:21:31;17.00;99.90
18091;DHT22;9172;49.948;9.208;2023-07-13T04:24:00;17.00;99.90
18091;DHT22;9172;49.948;9.208;2023-07-13T04:26:30;17.10;99.90
18091;DHT22;9172;49.948;9.208;2023-07-13T04:28:59;17.10;99.90
18091;DHT22;9172;49.948;9.208;2023-07-13T04:31:27;17.10;99.90
18091;DHT22;9172;49.948;9.208;2023-07-13T04:33:56;17.20;99.90
18091;DHT22;9172;49.948;9.208;2023-07-13T04:36:25;17.20;99.90
18091;DHT22;9172;49.948;9.208;2023-07-13T04:38:54;17.10;99.90
18091;DHT22;9172;49.948;9.208;2023-07-13T04:41:22;17.10;99.90
18091;DHT22;9172;49.948;9.208;2023-07-13T04:43:52;17.00;99.90
18091;DHT22;9172;49.948;9.208;2023-07-13T04:46:21;16.70;99.90
18091;DHT22;9172;49.948;9.208;2023-07-13T04:48:50;16.50;99.90
18091;DHT22;9172;49.948;9.208;2023-07-13T04:51:20;16.60;99.90
18091;DHT22;9172;49.948;9.208;2023-07-13T04:53:49;16.80;99.90
18091;DHT22;9172;49.948;9.208;2023-07-13T04:56:18;16.90;99.90
18091;DHT22;9172;49.948;9.208;2023-07-13T04:58:48;17.00;99.90
18091;DHT22;9172;49.948;9.208;2023-07-13T05:01:17;17.10;99.90
18091;DHT22;9172;49.948;9.208;2023-07-13T05:03:47;17.20;99.90
18091;DHT22;9172;49.948;9.208;2023-07-13T05:06:16;17.20;99.90
18091;DHT22;9172;49.948;9.208;2023-07-13T05:08:44;17.20;99.90
18091;DHT22;9172;49.948;9.208;2023-07-13T05:13:50;17.20;99.90
18091;DHT22;9172;49.948;9.208;2023-07-13T05:16:19;17.10;99.90
18091;DHT22;9172;49.948;9.208;2023-07-13T05:18:48;17.10;99.90
18091;DHT22;9172;49.948;9.208;2023-07-13T05:21:16;17.00;99.90
18091;DHT22;9172;49.948;9.208;2023-07-13T05:23:46;17.00;99.90
18091;DHT22;9172;49.948;9.208;2023-07-13T05:26:15;17.00;99.90
18091;DHT22;9172;49.948;9.208;2023-07-13T05:28:44;17.20;99.90
18091;DHT22;9172;49.948;9.208;2023-07-13T05:31:12;17.40;99.90
18091;DHT22;9172;49.948;9.208;2023-07-13T05:33:42;17.60;99.90
18091;DHT22;9172;49.948;9.208;2023-07-13T05:36:11;17.70;99.90
18091;DHT22;9172;49.948;9.208;2023-07-13T05:38:40;17.90;99.90
18091;DHT22;9172;49.948;9.208;2023-07-13T05:43:46;18.20;99.90
18091;DHT22;9172;49.948;9.208;2023-07-13T05:46:15;18.30;99.90
18091;DHT22;9172;49.948;9.208;2023-07-13T05:48:44;18.40;99.90
18091;DHT22;9172;49.948;9.208;2023-07-13T05:51:13;18.50;99.90
18091;DHT22;9172;49.948;9.208;2023-07-13T05:53:41;18.50;99.90
18091;DHT22;9172;49.948;9.208;2023-07-13T05:56:12;18.60;99.90
18091;DHT22;9172;49.948;9.208;2023-07-13T05:58:40;18.70;99.90
18091;DHT22;9172;49.948;9.208;2023-07-13T06:01:12;18.80;99.90
18091;DHT22;9172;49.948;9.208;2023-07-13T06:03:42;18.90;99.90
18091;DHT22;9172;49.948;9.208;2023-07-13T06:06:11;18.90;99.90
18091;DHT22;9172;49.948;9.208;2023-07-13T06:08:40;18.80;99.90
18091;DHT22;9172;49.948;9.208;2023-07-13T06:11:12;18.80;99.90
18091;DHT22;9172;49.948;9.208;2023-07-13T06:13:40;18.80;99.90
18091;DHT22;9172;49.948;9.208;2023-07-13T06:16:11;18.80;99.90
18091;DHT22;9172;49.948;9.208;2023-07-13T06:18:41;18.80;99.90
18091;DHT22;9172;49.948;9.208;2023-07-13T06:21:12;18.90;99.90
18091;DHT22;9172;49.948;9.208;2023-07-13T06:23:41;18.90;99.90
18091;DHT22;9172;49.948;9.208;2023-07-13T06:26:10;18.90;99.90
18091;DHT22;9172;49.948;9.208;2023-07-13T06:28:39;18.90;99.90
18091;DHT22;9172;49.948;9.208;2023-07-13T06:31:08;19.00;99.90
18091;DHT22;9172;49.948;9.208;2023-07-13T06:33:39;19.00;99.90
18091;DHT22;9172;49.948;9.208;2023-07-13T06:36:08;19.10;99.90
18091;DHT22;9172;49.948;9.208;2023-07-13T06:38:37;19.10;99.90
18091;DHT22;9172;49.948;9.208;2023-07-13T06:41:07;19.10;99.90
18091;DHT22;9172;49.948;9.208;2023-07-13T06:43:37;19.10;99.90
18091;DHT22;9172;49.948;9.208;2023-07-13T06:46:07;19.20;99.90
18091;DHT22;9172;49.948;9.208;2023-07-13T06:48:36;19.20;99.90
18091;DHT22;9172;49.948;9.208;2023-07-13T06:51:06;19.30;99.90
18091;DHT22;9172;49.948;9.208;2023-07-13T06:53:35;19.50;99.90
18091;DHT22;9172;49.948;9.208;2023-07-13T06:56:04;19.70;99.90
18091;DHT22;9172;49.948;9.208;2023-07-13T06:58:34;19.90;99.90
18091;DHT22;9172;49.948;9.208;2023-07-13T07:03:41;20.00;99.90
18091;DHT22;9172;49.948;9.208;2023-07-13T07:06:15;20.10;99.90
18091;DHT22;9172;49.948;9.208;2023-07-13T07:08:44;20.00;99.90
18091;DHT22;9172;49.948;9.208;2023-07-13T07:11:14;20.10;99.90
18091;DHT22;9172;49.948;9.208;2023-07-13T07:13:44;20.30;99.90
18091;DHT22;9172;49.948;9.208;2023-07-13T07:16:14;20.40;99.90
18091;DHT22;9172;49.948;9.208;2023-07-13T07:18:44;20.40;99.90
18091;DHT22;9172;49.948;9.208;2023-07-13T07:21:14;20.50;99.90
18091;DHT22;9172;49.948;9.208;2023-07-13T07:23:43;20.50;99.90
18091;DHT22;9172;49.948;9.208;2023-07-13T07:26:12;20.40;99.80
18091;DHT22;9172;49.948;9.208;2023-07-13T07:28:42;20.50;99.70
18091;DHT22;9172;49.948;9.208;2023-07-13T07:31:10;20.70;99.90
18091;DHT22;9172;49.948;9.208;2023-07-13T07:33:41;20.60;99.50
18091;DHT22;9172;49.948;9.208;2023-07-13T07:36:11;20.60;99.50
18091;DHT22;9172;49.948;9.208;2023-07-13T07:38:40;20.70;99.80
18091;DHT22;9172;49.948;9.208;2023-07-13T07:41:09;20.70;98.70
18091;DHT22;9172;49.948;9.208;2023-07-13T07:43:39;20.60;98.60
18091;DHT22;9172;49.948;9.208;2023-07-13T07:46:08;20.60;98.50
18091;DHT22;9172;49.948;9.208;2023-07-13T07:48:37;20.80;97.80
18091;DHT22;9172;49.948;9.208;2023-07-13T07:51:06;20.80;98.10
18091;DHT22;9172;49.948;9.208;2023-07-13T07:53:35;20.80;97.70
18091;DHT22;9172;49.948;9.208;2023-07-13T07:56:04;20.90;98.10
18091;DHT22;9172;49.948;9.208;2023-07-13T07:58:33;20.90;98.30
18091;DHT22;9172;49.948;9.208;2023-07-13T08:01:06;21.10;98.50
18091;DHT22;9172;49.948;9.208;2023-07-13T08:03:36;21.30;97.60
18091;DHT22;9172;49.948;9.208;2023-07-13T08:06:04;21.20;97.50
18091;DHT22;9172;49.948;9.208;2023-07-13T08:08:33;21.20;98.10
18091;DHT22;9172;49.948;9.208;2023-07-13T08:11:04;21.40;97.70
18091;DHT22;9172;49.948;9.208;2023-07-13T08:13:35;21.50;97.80
18091;DHT22;9172;49.948;9.208;2023-07-13T08:16:05;21.60;97.10
18091;DHT22;9172;49.948;9.208;2023-07-13T08:18:34;21.70;97.20
18091;DHT22;9172;49.948;9.208;2023-07-13T08:21:05;21.80;97.70
18091;DHT22;9172;49.948;9.208;2023-07-13T08:23:34;21.90;97.40
18091;DHT22;9172;49.948;9.208;2023-07-13T08:26:05;22.00;97.20
18091;DHT22;9172;49.948;9.208;2023-07-13T08:28:33;22.20;96.90
18091;DHT22;9172;49.948;9.208;2023-07-13T08:31:03;22.20;97.00
18091;DHT22;9172;49.948;9.208;2023-07-13T08:33:32;22.30;96.00
18091;DHT22;9172;49.948;9.208;2023-07-13T08:36:02;22.30;96.80
18091;DHT22;9172;49.948;9.208;2023-07-13T08:38:32;22.20;96.10
18091;DHT22;9172;49.948;9.208;2023-07-13T08:41:09;22.10;96.80
18091;DHT22;9172;49.948;9.208;2023-07-13T08:43:35;22.20;96.50
18091;DHT22;9172;49.948;9.208;2023-07-13T08:46:08;22.30;96.50
18091;DHT22;9172;49.948;9.208;2023-07-13T08:48:41;22.10;96.70
18091;DHT22;9172;49.948;9.208;2023-07-13T08:51:15;22.30;96.80
18091;DHT22;9172;49.948;9.208;2023-07-13T08:53:46;22.50;96.20
18091;DHT22;9172;49.948;9.208;2023-07-13T08:56:19;22.40;96.40
18091;DHT22;9172;49.948;9.208;2023-07-13T08:58:51;22.60;95.70
18091;DHT22;9172;49.948;9.208;2023-07-13T09:01:24;22.60;95.60
18091;DHT22;9172;49.948;9.208;2023-07-13T09:06:37;22.90;96.30
18091;DHT22;9172;49.948;9.208;2023-07-13T09:09:09;22.90;95.90
18091;DHT22;9172;49.948;9.208;2023-07-13T09:14:33;22.70;95.70
18091;DHT22;9172;49.948;9.208;2023-07-13T09:16:58;22.70;95.90
18091;DHT22;9172;49.948;9.208;2023-07-13T09:19:30;22.80;96.50
18091;DHT22;9172;49.948;9.208;2023-07-13T09:22:00;23.00;95.20
18091;DHT22;9172;49.948;9.208;2023-07-13T09:24:36;23.10;95.40
18091;DHT22;9172;49.948;9.208;2023-07-13T09:27:13;23.40;96.30
18091;DHT22;9172;49.948;9.208;2023-07-13T09:29:47;23.30;94.70
18091;DHT22;9172;49.948;9.208;2023-07-13T09:32:18;23.00;94.70
18091;DHT22;9172;49.948;9.208;2023-07-13T09:34:52;23.00;94.40
18091;DHT22;9172;49.948;9.208;2023-07-13T09:37:26;23.20;95.10
18091;DHT22;9172;49.948;9.208;2023-07-13T09:42:32;23.30;94.10
18091;DHT22;9172;49.948;9.208;2023-07-13T09:45:02;23.20;93.00
18091;DHT22;9172;49.948;9.208;2023-07-13T09:47:32;23.40;93.70
18091;DHT22;9172;49.948;9.208;2023-07-13T09:52:42;23.20;94.60
18091;DHT22;9172;49.948;9.208;2023-07-13T09:58:15;23.50;93.10
18091;DHT22;9172;49.948;9.208;2023-07-13T10:00:55;23.40;93.60
18091;DHT22;9172;49.948;9.208;2023-07-13T10:03:21;23.40;93.60
18091;DHT22;9172;49.948;9.208;2023-07-13T10:05:52;23.40;93.30
18091;DHT22;9172;49.948;9.208;2023-07-13T10:08:26;23.50;93.80
18091;DHT22;9172;49.948;9.208;2023-07-13T10:10:59;23.50;93.30
18091;DHT22;9172;49.948;9.208;2023-07-13T10:13:32;23.40;94.50
18091;DHT22;9172;49.948;9.208;2023-07-13T10:16:05;23.50;94.30
18091;DHT22;9172;49.948;9.208;2023-07-13T10:18:39;23.50;93.50
18091;DHT22;9172;49.948;9.208;2023-07-13T10:21:13;23.50;93.00
18091;DHT22;9172;49.948;9.208;2023-07-13T10:23:42;23.50;94.10
18091;DHT22;9172;49.948;9.208;2023-07-13T10:28:52;23.40;91.30
18091;DHT22;9172;49.948;9.208;2023-07-13T10:31:23;23.40;91.40
18091;DHT22;9172;49.948;9.208;2023-07-13T10:33:53;23.30;91.60
18091;DHT22;9172;49.948;9.208;2023-07-13T10:36:29;23.30;91.60
18091;DHT22;9172;49.948;9.208;2023-07-13T10:39:02;23.20;91.30
18091;DHT22;9172;49.948;9.208;2023-07-13T10:41:34;23.10;91.20
18091;DHT22;9172;49.948;9.208;2023-07-13T10:44:04;23.20;92.00
18091;DHT22;9172;49.948;9.208;2023-07-13T10:46:34;23.40;91.60
18091;DHT22;9172;49.948;9.208;2023-07-13T10:49:05;23.60;91.20
18091;DHT22;9172;49.948;9.208;2023-07-13T10:51:34;23.40;91.20
18091;DHT22;9172;49.948;9.208;2023-07-13T10:57:16;23.70;91.20
18091;DHT22;9172;49.948;9.208;2023-07-13T10:59:48;24.00;91.30
18091;DHT22;9172;49.948;9.208;2023-07-13T11:02:25;24.10;91.70
18091;DHT22;9172;49.948;9.208;2023-07-13T11:04:56;24.00;90.60
18091;DHT22;9172;49.948;9.208;2023-07-13T11:07:27;24.10;90.10
18091;DHT22;9172;49.948;9.208;2023-07-13T11:09:58;23.90;90.50
18091;DHT22;9172;49.948;9.208;2023-07-13T11:12:50;24.00;90.10
18091;DHT22;9172;49.948;9.208;2023-07-13T11:15:45;23.90;89.70
18091;DHT22;9172;49.948;9.208;2023-07-13T11:18:20;23.80;90.20
18091;DHT22;9172;49.948;9.208;2023-07-13T11:20:49;23.70;90.30
18091;DHT22;9172;49.948;9.208;2023-07-13T11:23:26;23.70;90.40
18091;DHT22;9172;49.948;9.208;2023-07-13T11:25:51;23.80;90.60
18091;DHT22;9172;49.948;9.208;2023-07-13T11:28:25;23.70;90.40
18091;DHT22;9172;49.948;9.208;2023-07-13T11:33:54;23.70;90.70
18091;DHT22;9172;49.948;9.208;2023-07-13T11:36:29;23.90;91.10
18091;DHT22;9172;49.948;9.208;2023-07-13T11:39:02;24.20;91.10
18091;DHT22;9172;49.948;9.208;2023-07-13T11:41:34;24.40;90.50
18091;DHT22;9172;49.948;9.208;2023-07-13T11:44:07;24.60;90.10
18091;DHT22;9172;49.948;9.208;2023-07-13T11:46:35;24.80;89.20
18091;DHT22;9172;49.948;9.208;2023-07-13T11:49:06;25.00;89.10
18091;DHT22;9172;49.948;9.208;2023-07-13T11:51:36;25.10;87.70
18091;DHT22;9172;49.948;9.208;2023-07-13T11:54:10;25.00;88.50
18091;DHT22;9172;49.948;9.208;2023-07-13T11:56:37;25.10;89.40
18091;DHT22;9172;49.948;9.208;2023-07-13T11:59:10;25.00;88.10
18091;DHT22;9172;49.948;9.208;2023-07-13T12:01:44;25.00;89.30
18091;DHT22;9172;49.948;9.208;2023-07-13T12:04:20;25.00;87.20
18091;DHT22;9172;49.948;9.208;2023-07-13T12:06:58;25.20;89.40
18091;DHT22;9172;49.948;9.208;2023-07-13T12:09:28;25.40;90.00
18091;DHT22;9172;49.948;9.208;2023-07-13T12:11:58;25.40;87.00
18091;DHT22;9172;49.948;9.208;2023-07-13T12:14:29;25.10;86.20
18091;DHT22;9172;49.948;9.208;2023-07-13T12:17:00;24.90;87.40
18091;DHT22;9172;49.948;9.208;2023-07-13T12:19:29;24.70;86.60
18091;DHT22;9172;49.948;9.208;2023-07-13T12:21:58;24.50;87.70
18091;DHT22;9172;49.948;9.208;2023-07-13T12:24:28;24.50;88.00
18091;DHT22;9172;49.948;9.208;2023-07-13T12:26:59;24.40;87.30
18091;DHT22;9172;49.948;9.208;2023-07-13T12:29:28;24.50;88.10
18091;DHT22;9172;49.948;9.208;2023-07-13T12:31:57;24.50;86.90
18091;DHT22;9172;49.948;9.208;2023-07-13T12:34:26;24.40;86.70
18091;DHT22;9172;49.948;9.208;2023-07-13T12:36:56;24.50;87.20
18091;DHT22;9172;49.948;9.208;2023-07-13T12:39:28;24.60;86.60
18091;DHT22;9172;49.948;9.208;2023-07-13T12:42:10;24.60;86.40
18091;DHT22;9172;49.948;9.208;2023-07-13T12:44:41;24.70;87.30
18091;DHT22;9172;49.948;9.208;2023-07-13T12:47:12;24.90;87.00
18091;DHT22;9172;49.948;9.208;2023-07-13T12:49:43;25.00;87.70
18091;DHT22;9172;49.948;9.208;2023-07-13T12:52:16;25.00;87.40
18091;DHT22;9172;49.948;9.208;2023-07-13T12:54:54;25.00;88.00
18091;DHT22;9172;49.948;9.208;2023-07-13T12:57:24;25.00;88.70
18091;DHT22;9172;49.948;9.208;2023-07-13T12:59:55;25.10;86.90
18091;DHT22;9172;49.948;9.208;2023-07-13T13:02:29;25.00;87.20
18091;DHT22;9172;49.948;9.208;2023-07-13T13:05:00;25.00;87.10
18091;DHT22;9172;49.948;9.208;2023-07-13T13:07:31;25.00;87.70
18091;DHT22;9172;49.948;9.208;2023-07-13T13:10:04;25.00;87.30
18091;DHT22;9172;49.948;9.208;2023-07-13T13:12:34;24.60;87.10
18091;DHT22;9172;49.948;9.208;2023-07-13T13:15:02;24.40;88.00
18091;DHT22;9172;49.948;9.208;2023-07-13T13:17:33;24.40;90.10
18091;DHT22;9172;49.948;9.208;2023-07-13T13:20:04;24.50;90.00
18091;DHT22;9172;49.948;9.208;2023-07-13T13:22:33;24.50;88.30
18091;DHT22;9172;49.948;9.208;2023-07-13T13:25:02;24.40;89.20
18091;DHT22;9172;49.948;9.208;2023-07-13T13:27:30;24.30;88.90
18091;DHT22;9172;49.948;9.208;2023-07-13T13:30:02;24.30;88.70
18091;DHT22;9172;49.948;9.208;2023-07-13T13:32:31;24.10;88.80
18091;DHT22;9172;49.948;9.208;2023-07-13T13:35:00;24.00;88.20
18091;DHT22;9172;49.948;9.208;2023-07-13T13:37:29;24.00;88.00
18091;DHT22;9172;49.948;9.208;2023-07-13T13:39:58;23.90;87.90
18091;DHT22;9172;49.948;9.208;2023-07-13T13:42:28;23.90;87.90
18091;DHT22;9172;49.948;9.208;2023-07-13T13:47:34;23.90;87.40
18091;DHT22;9172;49.948;9.208;2023-07-13T13:50:11;23.90;88.50
18091;DHT22;9172;49.948;9.208;2023-07-13T13:52:40;23.90;87.90
18091;DHT22;9172;49.948;9.208;2023-07-13T13:55:14;23.80;88.50
18091;DHT22;9172;49.948;9.208;2023-07-13T13:57:42;23.70;87.40
18091;DHT22;9172;49.948;9.208;2023-07-13T14:00:13;23.70;88.00
18091;DHT22;9172;49.948;9.208;2023-07-13T14:02:44;23.70;88.30
18091;DHT22;9172;49.948;9.208;2023-07-13T14:05:18;23.70;88.10
18091;DHT22;9172;49.948;9.208;2023-07-13T14:07:46;23.70;88.20
18091;DHT22;9172;49.948;9.208;2023-07-13T14:10:17;23.70;88.90
18091;DHT22;9172;49.948;9.208;2023-07-13T14:12:48;23.60;87.50
18091;DHT22;9172;49.948;9.208;2023-07-13T14:15:21;23.60;88.60
18091;DHT22;9172;49.948;9.208;2023-07-13T14:17:50;23.70;89.70
18091;DHT22;9172;49.948;9.208;2023-07-13T14:20:20;23.70;87.60
18091;DHT22;9172;49.948;9.208;2023-07-13T14:22:51;23.70;89.10
18091;DHT22;9172;49.948;9.208;2023-07-13T14:25:21;23.70;88.50
18091;DHT22;9172;49.948;9.208;2023-07-13T14:27:53;23.80;88.70
18091;DHT22;9172;49.948;9.208;2023-07-13T14:30:25;23.80;89.20
18091;DHT22;9172;49.948;9.208;2023-07-13T14:32:54;23.80;88.20
18091;DHT22;9172;49.948;9.208;2023-07-13T14:35:23;23.80;89.20
18091;DHT22;9172;49.948;9.208;2023-07-13T14:37:53;23.80;89.10
18091;DHT22;9172;49.948;9.208;2023-07-13T14:40:25;23.90;89.30
18091;DHT22;9172;49.948;9.208;2023-07-13T14:42:55;23.80;88.90
18091;DHT22;9172;49.948;9.208;2023-07-13T14:45:24;23.80;89.00
18091;DHT22;9172;49.948;9.208;2023-07-13T14:47:55;23.90;89.30
18091;DHT22;9172;49.948;9.208;2023-07-13T14:50:29;23.90;89.30
18091;DHT22;9172;49.948;9.208;2023-07-13T14:52:58;23.90;89.00
18091;DHT22;9172;49.948;9.208;2023-07-13T14:55:26;23.90;89.20
18091;DHT22;9172;49.948;9.208;2023-07-13T14:57:55;23.80;89.00
18091;DHT22;9172;49.948;9.208;2023-07-13T15:00:25;23.90;89.30
18091;DHT22;9172;49.948;9.208;2023-07-13T15:02:56;23.90;88.40
18091;DHT22;9172;49.948;9.208;2023-07-13T15:05:27;23.90;89.30
18091;DHT22;9172;49.948;9.208;2023-07-13T15:07:58;24.00;88.60
18091;DHT22;9172;49.948;9.208;2023-07-13T15:10:29;24.00;88.60
18091;DHT22;9172;49.948;9.208;2023-07-13T15:13:01;24.00;88.40
18091;DHT22;9172;49.948;9.208;2023-07-13T15:15:32;24.00;89.00
18091;DHT22;9172;49.948;9.208;2023-07-13T15:20:40;23.90;88.10
18091;DHT22;9172;49.948;9.208;2023-07-13T15:23:10;23.80;87.50
18091;DHT22;9172;49.948;9.208;2023-07-13T15:25:42;23.80;87.80
18091;DHT22;9172;49.948;9.208;2023-07-13T15:28:12;23.90;88.30
18091;DHT22;9172;49.948;9.208;2023-07-13T15:30:44;23.90;87.00
18091;DHT22;9172;49.948;9.208;2023-07-13T15:33:14;23.90;87.90
18091;DHT22;9172;49.948;9.208;2023-07-13T15:35:44;23.90;88.40
18091;DHT22;9172;49.948;9.208;2023-07-13T15:38:16;24.00;88.70
18091;DHT22;9172;49.948;9.208;2023-07-13T15:40:45;23.80;88.20
18091;DHT22;9172;49.948;9.208;2023-07-13T15:43:15;23.90;88.70
18091;DHT22;9172;49.948;9.208;2023-07-13T15:45:45;23.90;87.30
18091;DHT22;9172;49.948;9.208;2023-07-13T15:48:16;24.00;88.30
18091;DHT22;9172;49.948;9.208;2023-07-13T15:50:48;24.00;88.00
18091;DHT22;9172;49.948;9.208;2023-07-13T15:53:19;24.00;87.10
18091;DHT22;9172;49.948;9.208;2023-07-13T15:55:48;23.90;87.90
18091;DHT22;9172;49.948;9.208;2023-07-13T15:58:17;23.70;88.20
18091;DHT22;9172;49.948;9.208;2023-07-13T16:00:47;23.70;89.40
18091;DHT22;9172;49.948;9.208;2023-07-13T16:03:18;23.70;89.20
18091;DHT22;9172;49.948;9.208;2023-07-13T16:05:54;23.80;89.00
18091;DHT22;9172;49.948;9.208;2023-07-13T16:08:20;23.90;88.60
18091;DHT22;9172;49.948;9.208;2023-07-13T16:10:50;23.80;88.50
18091;DHT22;9172;49.948;9.208;2023-07-13T16:13:21;23.80;88.20
18091;DHT22;9172;49.948;9.208;2023-07-13T16:15:51;23.80;88.80
18091;DHT22;9172;49.948;9.208;2023-07-13T16:18:20;23.70;88.20
18091;DHT22;9172;49.948;9.208;2023-07-13T16:20:49;23.60;88.60
18091;DHT22;9172;49.948;9.208;2023-07-13T16:23:18;23.60;88.80
18091;DHT22;9172;49.948;9.208;2023-07-13T16:25:51;23.70;89.20
18091;DHT22;9172;49.948;9.208;2023-07-13T16:28:20;23.60;88.80
18091;DHT22;9172;49.948;9.208;2023-07-13T16:30:48;23.60;88.60
18091;DHT22;9172;49.948;9.208;2023-07-13T16:33:19;23.60;88.40
18091;DHT22;9172;49.948;9.208;2023-07-13T16:35:49;23.60;89.30
18091;DHT22;9172;49.948;9.208;2023-07-13T16:38:19;23.50;88.10
18091;DHT22;9172;49.948;9.208;2023-07-13T16:40:48;23.50;88.40
18091;DHT22;9172;49.948;9.208;2023-07-13T16:43:19;23.40;89.00